Time;durP1;ratioP1;P1;durP2;ratioP2;P2;SDS_P1;SDS_P2;PMS_P1;PMS_P2;Temp;Humidity;BMP_temperature;BMP_pressure;BME280_temperature;BME280_humidity;BME280_pressure;Samples;Min_cycle;Max_cycle;Signal;HPM_P1;HPM_P2
2022/04/28 00:00:11;;;;;;;;;;;9.70;96.80;;;;;;7352247;19;106810;-96
2022/04/28 00:02:39;;;;;;;;;;;9.70;96.80;;;;;;7355591;19;107162;-96
2022/04/28 00:05:06;;;;;;;;;;;9.60;97.10;;;;;;7363373;19;106185;-96
2022/04/28 00:07:33;;;;;;;;;;;9.60;97.30;;;;;;7359933;19;106565;-95
2022/04/28 00:10:01;;;;;;;;;;;9.50;97.50;;;;;;7361879;19;106969;-96
2022/04/28 00:12:28;;;;;;;;;;;9.50;97.50;;;;;;7368089;19;107404;-96
2022/04/28 00:14:55;;;;;;;;;;;9.50;97.80;;;;;;7359409;19;106911;-94
2022/04/28 00:17:22;;;;;;;;;;;9.50;97.80;;;;;;7362362;19;106288;-96
2022/04/28 00:19:49;;;;;;;;;;;9.40;98.00;;;;;;7361851;19;106033;-95
2022/04/28 00:22:17;;;;;;;;;;;9.30;98.10;;;;;;7360753;19;107305;-96
2022/04/28 00:24:44;;;;;;;;;;;9.30;98.00;;;;;;7357404;19;106935;-95
2022/04/28 00:27:11;;;;;;;;;;;9.30;98.20;;;;;;7359760;19;106418;-96
2022/04/28 00:29:38;;;;;;;;;;;9.30;98.40;;;;;;7357434;19;107885;-96
2022/04/28 00:32:06;;;;;;;;;;;9.30;98.60;;;;;;7365317;19;106144;-95
2022/04/28 00:34:33;;;;;;;;;;;9.20;98.70;;;;;;7371938;19;106062;-96
2022/04/28 00:37:00;;;;;;;;;;;9.20;98.90;;;;;;7367646;19;106408;-96
2022/04/28 00:39:28;;;;;;;;;;;9.20;98.70;;;;;;7366468;19;106105;-96
2022/04/28 00:42:10;;;;;;;;;;;9.10;99.00;;;;;;7357232;19;106353;-95
2022/04/28 00:44:37;;;;;;;;;;;9.10;99.20;;;;;;7357172;19;106090;-96
2022/04/28 00:47:07;;;;;;;;;;;9.00;99.30;;;;;;7361121;19;106409;-96
2022/04/28 00:52:34;;;;;;;;;;;9.00;99.50;;;;;;7358167;19;106069;-96
2022/04/28 00:55:03;;;;;;;;;;;9.00;99.40;;;;;;7358719;19;106508;-96
2022/04/28 00:57:31;;;;;;;;;;;9.00;99.40;;;;;;7352868;19;106135;-96
2022/04/28 00:59:58;;;;;;;;;;;9.00;99.50;;;;;;7348852;19;106721;-95
2022/04/28 01:02:25;;;;;;;;;;;9.00;99.30;;;;;;7350500;19;107547;-96
2022/04/28 01:04:52;;;;;;;;;;;9.00;99.60;;;;;;7349289;19;106413;-96
2022/04/28 01:07:19;;;;;;;;;;;8.90;99.80;;;;;;7353320;19;107283;-95
2022/04/28 01:09:46;;;;;;;;;;;8.90;99.70;;;;;;7351099;19;108838;-96
2022/04/28 01:12:14;;;;;;;;;;;8.90;99.80;;;;;;7348753;19;107398;-94
2022/04/28 01:14:55;;;;;;;;;;;8.80;99.90;;;;;;7347784;19;106375;-95
2022/04/28 01:17:22;;;;;;;;;;;8.80;99.90;;;;;;7353842;19;106996;-95
2022/04/28 01:19:53;;;;;;;;;;;8.80;99.90;;;;;;7354008;19;107660;-96
2022/04/28 01:22:20;;;;;;;;;;;8.80;99.90;;;;;;7353328;19;106879;-96
2022/04/28 01:24:47;;;;;;;;;;;8.80;99.90;;;;;;7355150;19;106267;-96
2022/04/28 01:27:14;;;;;;;;;;;8.70;99.90;;;;;;7356391;19;106166;-96
2022/04/28 01:29:42;;;;;;;;;;;8.70;99.90;;;;;;7357592;19;106934;-96
2022/04/28 01:32:09;;;;;;;;;;;8.70;99.90;;;;;;7357942;19;106061;-96
2022/04/28 01:34:50;;;;;;;;;;;8.70;99.90;;;;;;7357576;19;106021;-96
2022/04/28 01:37:18;;;;;;;;;;;8.70;99.90;;;;;;7356727;19;106841;-96
2022/04/28 01:39:46;;;;;;;;;;;8.70;99.90;;;;;;7360847;19;106257;-96
2022/04/28 01:42:35;;;;;;;;;;;8.70;99.90;;;;;;7359006;19;107142;-96
2022/04/28 01:45:16;;;;;;;;;;;8.50;99.90;;;;;;7363061;19;106278;-96
2022/04/28 01:47:58;;;;;;;;;;;8.50;99.90;;;;;;7358897;19;106797;-96
2022/04/28 01:50:40;;;;;;;;;;;8.50;99.90;;;;;;7358047;19;106941;-96
2022/04/28 01:56:18;;;;;;;;;;;8.40;99.90;;;;;;7350732;19;106986;-96
2022/04/28 01:58:59;;;;;;;;;;;8.40;99.90;;;;;;7349720;19;106881;-96
2022/04/28 02:01:39;;;;;;;;;;;8.30;99.90;;;;;;7349307;19;107287;-96
2022/04/28 02:04:08;;;;;;;;;;;8.40;99.90;;;;;;7356079;19;106060;-96
2022/04/28 02:06:48;;;;;;;;;;;8.30;99.90;;;;;;7347968;19;106295;-96
2022/04/28 02:09:16;;;;;;;;;;;8.30;99.90;;;;;;7350832;19;106502;-96
2022/04/28 02:11:43;;;;;;;;;;;8.30;99.90;;;;;;7350408;19;107070;-96
2022/04/28 02:14:10;;;;;;;;;;;8.30;99.90;;;;;;7351961;19;107241;-95
2022/04/28 02:16:37;;;;;;;;;;;8.30;99.90;;;;;;7352388;19;105969;-96
2022/04/28 02:19:05;;;;;;;;;;;8.30;99.90;;;;;;7352159;19;107122;-96
2022/04/28 02:21:32;;;;;;;;;;;8.30;99.90;;;;;;7351059;19;106149;-96
2022/04/28 02:24:08;;;;;;;;;;;8.20;99.90;;;;;;7353233;19;105985;-96
2022/04/28 02:26:35;;;;;;;;;;;8.20;99.90;;;;;;7356097;19;106916;-96
2022/04/28 02:29:02;;;;;;;;;;;8.10;99.90;;;;;;7350067;19;107292;-96
2022/04/28 02:31:29;;;;;;;;;;;8.10;99.90;;;;;;7351659;19;107195;-96
2022/04/28 02:33:57;;;;;;;;;;;8.10;99.90;;;;;;7349296;19;106621;-96
2022/04/28 02:36:24;;;;;;;;;;;8.10;99.90;;;;;;7352712;19;106387;-95
2022/04/28 02:38:52;;;;;;;;;;;8.10;99.90;;;;;;7351028;19;107147;-95
2022/04/28 02:41:21;;;;;;;;;;;8.10;99.90;;;;;;7350429;19;106883;-96
2022/04/28 02:43:49;;;;;;;;;;;8.00;99.90;;;;;;7350727;19;107120;-96
2022/04/28 02:46:16;;;;;;;;;;;8.00;99.90;;;;;;7347549;19;107990;-96
2022/04/28 02:48:43;;;;;;;;;;;8.00;99.90;;;;;;7356563;19;107146;-96
2022/04/28 02:51:11;;;;;;;;;;;8.00;99.90;;;;;;7348032;19;106550;-96
2022/04/28 02:53:38;;;;;;;;;;;8.00;99.90;;;;;;7349492;19;106929;-96
2022/04/28 02:56:05;;;;;;;;;;;8.00;99.90;;;;;;7349645;19;106661;-96
2022/04/28 02:58:34;;;;;;;;;;;8.00;99.90;;;;;;7354895;19;106948;-96
2022/04/28 03:01:01;;;;;;;;;;;7.90;99.90;;;;;;7356514;19;106262;-96
2022/04/28 03:03:29;;;;;;;;;;;7.90;99.90;;;;;;7356831;19;106529;-96
2022/04/28 03:11:28;;;;;;;;;;;7.80;99.90;;;;;;7356445;19;107227;-96
2022/04/28 03:13:56;;;;;;;;;;;7.80;99.90;;;;;;7354661;19;106892;-96
2022/04/28 03:16:24;;;;;;;;;;;7.80;99.90;;;;;;7352799;19;105914;-96
2022/04/28 03:18:55;;;;;;;;;;;7.70;99.90;;;;;;7354885;19;106931;-96
2022/04/28 03:21:23;;;;;;;;;;;7.70;99.90;;;;;;7355948;19;106653;-96
2022/04/28 03:23:51;;;;;;;;;;;7.80;99.90;;;;;;7357537;19;106077;-96
2022/04/28 03:26:17;;;;;;;;;;;7.80;99.90;;;;;;7355454;19;106958;-96
2022/04/28 03:28:45;;;;;;;;;;;7.70;99.90;;;;;;7358564;19;106192;-96
2022/04/28 03:31:13;;;;;;;;;;;7.80;99.90;;;;;;7361877;19;106535;-95
2022/04/28 03:33:40;;;;;;;;;;;7.80;99.90;;;;;;7352935;19;106402;-95
2022/04/28 03:39:07;;;;;;;;;;;7.70;99.90;;;;;;7353478;19;106986;-96
2022/04/28 03:41:34;;;;;;;;;;;7.70;99.90;;;;;;7351132;19;107185;-96
2022/04/28 03:44:05;;;;;;;;;;;7.70;99.90;;;;;;7353792;19;106446;-96
2022/04/28 03:46:33;;;;;;;;;;;7.60;99.90;;;;;;7353206;19;106899;-96
2022/04/28 03:49:15;;;;;;;;;;;7.60;99.90;;;;;;7351700;19;106518;-96
2022/04/28 03:51:55;;;;;;;;;;;7.50;99.90;;;;;;7350702;19;106532;-96
2022/04/28 03:54:22;;;;;;;;;;;7.50;99.90;;;;;;7356653;19;106925;-96
2022/04/28 03:56:49;;;;;;;;;;;7.60;99.90;;;;;;7352535;19;106029;-95
2022/04/28 03:59:17;;;;;;;;;;;7.50;99.90;;;;;;7351551;19;107266;-96
2022/04/28 04:01:45;;;;;;;;;;;7.50;99.90;;;;;;7352919;19;106606;-96
2022/04/28 04:04:16;;;;;;;;;;;7.50;99.90;;;;;;7354492;19;106098;-96
2022/04/28 04:06:43;;;;;;;;;;;7.40;99.90;;;;;;7352027;19;106978;-96
2022/04/28 04:09:10;;;;;;;;;;;7.40;99.90;;;;;;7351942;19;107819;-96
2022/04/28 04:11:37;;;;;;;;;;;7.40;99.90;;;;;;7353361;19;106494;-96
2022/04/28 04:14:04;;;;;;;;;;;7.40;99.90;;;;;;7351458;19;106607;-96
2022/04/28 04:16:31;;;;;;;;;;;7.40;99.90;;;;;;7355448;19;106643;-96
2022/04/28 04:18:59;;;;;;;;;;;7.40;99.90;;;;;;7352119;19;106875;-96
2022/04/28 04:21:26;;;;;;;;;;;7.50;99.90;;;;;;7352620;19;107237;-95
2022/04/28 04:23:53;;;;;;;;;;;7.50;99.90;;;;;;7352603;19;107465;-96
2022/04/28 04:26:20;;;;;;;;;;;7.40;99.90;;;;;;7352032;19;107079;-96
2022/04/28 04:28:47;;;;;;;;;;;7.40;99.90;;;;;;7352908;19;106743;-96
2022/04/28 04:34:00;;;;;;;;;;;7.40;99.90;;;;;;7351781;19;106928;-96
2022/04/28 04:36:28;;;;;;;;;;;7.40;99.90;;;;;;7348397;19;108038;-96
2022/04/28 04:38:55;;;;;;;;;;;7.40;99.90;;;;;;7355913;19;106560;-96
2022/04/28 04:41:36;;;;;;;;;;;7.40;99.90;;;;;;7349201;19;106796;-95
2022/04/28 04:44:17;;;;;;;;;;;7.40;99.90;;;;;;7348811;19;106831;-96
2022/04/28 04:46:59;;;;;;;;;;;7.40;99.90;;;;;;7351235;19;107770;-96
2022/04/28 04:49:34;;;;;;;;;;;7.40;99.90;;;;;;7354348;19;106310;-96
2022/04/28 04:52:06;;;;;;;;;;;7.40;99.90;;;;;;7352469;19;105964;-96
2022/04/28 04:54:33;;;;;;;;;;;7.40;99.90;;;;;;7355188;19;107092;-96
2022/04/28 04:57:00;;;;;;;;;;;7.50;99.90;;;;;;7357384;19;106406;-96
2022/04/28 04:59:27;;;;;;;;;;;7.50;99.90;;;;;;7361298;19;106211;-96
2022/04/28 05:01:55;;;;;;;;;;;7.50;99.90;;;;;;7366927;19;106877;-96
2022/04/28 05:04:23;;;;;;;;;;;7.50;99.90;;;;;;7364116;19;107130;-96
2022/04/28 05:06:51;;;;;;;;;;;7.50;99.90;;;;;;7358119;19;106667;-96
2022/04/28 05:09:19;;;;;;;;;;;7.50;99.90;;;;;;7360000;19;107182;-96
2022/04/28 05:11:47;;;;;;;;;;;7.60;99.90;;;;;;7358011;19;106679;-96
2022/04/28 05:14:27;;;;;;;;;;;7.70;99.90;;;;;;7357893;19;107001;-96
2022/04/28 05:17:29;;;;;;;;;;;7.60;99.90;;;;;;7363109;19;106183;-96
2022/04/28 05:20:10;;;;;;;;;;;7.60;99.90;;;;;;7357152;19;106225;-96
2022/04/28 05:22:52;;;;;;;;;;;7.70;99.90;;;;;;7367062;19;106866;-96
2022/04/28 05:25:56;;;;;;;;;;;7.80;99.90;;;;;;7364185;19;105934;-96
2022/04/28 05:29:01;;;;;;;;;;;7.80;99.90;;;;;;7359241;19;107119;-96
2022/04/28 05:31:43;;;;;;;;;;;7.90;99.90;;;;;;7357546;19;107307;-96
2022/04/28 05:34:31;;;;;;;;;;;8.00;99.90;;;;;;7364135;19;108745;-96
2022/04/28 05:37:52;;;;;;;;;;;8.00;99.90;;;;;;7356085;19;107077;-96
2022/04/28 05:40:59;;;;;;;;;;;8.10;99.90;;;;;;7357313;19;106279;-96
2022/04/28 05:47:03;;;;;;;;;;;8.40;99.90;;;;;;7356153;19;106968;-96
2022/04/28 05:50:05;;;;;;;;;;;8.30;99.90;;;;;;7362467;19;106807;-96
2022/04/28 05:52:54;;;;;;;;;;;8.30;99.90;;;;;;7354911;19;107094;-96
2022/04/28 05:55:41;;;;;;;;;;;8.40;99.90;;;;;;7354754;19;106181;-96
2022/04/28 05:58:45;;;;;;;;;;;8.50;99.90;;;;;;7353008;19;106035;-96
2022/04/28 06:01:39;;;;;;;;;;;8.50;99.90;;;;;;7352006;19;107031;-96
2022/04/28 06:04:46;;;;;;;;;;;8.60;99.90;;;;;;7349316;19;106838;-96
2022/04/28 06:07:59;;;;;;;;;;;8.70;99.90;;;;;;7353790;19;106866;-96
2022/04/28 06:11:11;;;;;;;;;;;8.80;99.90;;;;;;7353709;19;106840;-96
2022/04/28 06:14:29;;;;;;;;;;;9.00;99.90;;;;;;7357025;19;106206;-96
2022/04/28 06:17:14;;;;;;;;;;;9.10;99.90;;;;;;7363635;19;106015;-96
2022/04/28 06:19:57;;;;;;;;;;;9.10;99.90;;;;;;7360174;19;106046;-96
2022/04/28 06:22:46;;;;;;;;;;;9.20;99.90;;;;;;7361941;19;105977;-96
2022/04/28 06:25:40;;;;;;;;;;;9.30;99.90;;;;;;7363034;19;106898;-96
2022/04/28 06:28:34;;;;;;;;;;;9.40;99.90;;;;;;7367377;19;106080;-96
2022/04/28 06:31:35;;;;;;;;;;;9.50;99.90;;;;;;7365338;19;106066;-96
2022/04/28 06:34:24;;;;;;;;;;;9.60;99.90;;;;;;7349016;19;107167;-94
2022/04/28 06:36:51;;;;;;;;;;;9.70;99.90;;;;;;7352830;19;107213;-94
2022/04/28 06:39:18;;;;;;;;;;;9.80;99.90;;;;;;7356391;19;107100;-93
2022/04/28 06:41:45;;;;;;;;;;;10.00;99.90;;;;;;7360655;19;108690;-94
2022/04/28 06:44:12;;;;;;;;;;;10.20;99.90;;;;;;7353893;19;109123;-93
2022/04/28 06:46:39;;;;;;;;;;;10.20;99.90;;;;;;7355261;19;107916;-94
2022/04/28 06:49:06;;;;;;;;;;;10.30;99.90;;;;;;7355243;19;107289;-93
2022/04/28 06:51:33;;;;;;;;;;;10.30;99.90;;;;;;7356236;19;107362;-94
2022/04/28 06:54:00;;;;;;;;;;;10.30;99.90;;;;;;7355455;19;109025;-95
2022/04/28 06:56:27;;;;;;;;;;;10.40;99.90;;;;;;7353598;19;106695;-95
2022/04/28 06:58:54;;;;;;;;;;;10.30;99.90;;;;;;7354531;19;107076;-94
2022/04/28 07:01:21;;;;;;;;;;;10.50;99.90;;;;;;7350777;19;109126;-90
2022/04/28 07:03:48;;;;;;;;;;;10.60;99.90;;;;;;7355535;19;108235;-89
2022/04/28 07:06:15;;;;;;;;;;;10.70;99.90;;;;;;7346531;19;109276;-90
2022/04/28 07:08:43;;;;;;;;;;;10.80;99.90;;;;;;7350092;19;106982;-89
2022/04/28 07:11:10;;;;;;;;;;;10.80;99.90;;;;;;7348766;19;108026;-89
2022/04/28 07:13:37;;;;;;;;;;;11.00;99.90;;;;;;7349370;19;109553;-89
2022/04/28 07:16:05;;;;;;;;;;;11.30;99.90;;;;;;7348502;19;107509;-90
2022/04/28 07:18:32;;;;;;;;;;;11.40;99.90;;;;;;7347786;19;107528;-90
2022/04/28 07:21:03;;;;;;;;;;;11.50;99.90;;;;;;7347105;19;108298;-90
2022/04/28 07:23:37;;;;;;;;;;;11.60;99.90;;;;;;7350172;19;106813;-90
2022/04/28 07:26:03;;;;;;;;;;;11.80;99.50;;;;;;7352764;19;107584;-89
2022/04/28 07:28:30;;;;;;;;;;;11.80;99.90;;;;;;7344635;19;107207;-89
2022/04/28 07:30:57;;;;;;;;;;;11.90;99.50;;;;;;7347409;19;106890;-90
2022/04/28 07:33:24;;;;;;;;;;;12.00;98.80;;;;;;7345410;19;108749;-88
2022/04/28 07:35:51;;;;;;;;;;;12.10;98.20;;;;;;7347796;19;107216;-88
2022/04/28 07:38:18;;;;;;;;;;;12.20;98.40;;;;;;7348674;19;108404;-89
2022/04/28 07:40:45;;;;;;;;;;;12.20;98.40;;;;;;7345616;19;109087;-89
2022/04/28 07:43:12;;;;;;;;;;;12.20;98.10;;;;;;7346161;19;107366;-90
2022/04/28 07:45:39;;;;;;;;;;;12.40;98.10;;;;;;7350745;19;109699;-89
2022/04/28 07:48:11;;;;;;;;;;;12.40;97.90;;;;;;7346731;19;107144;-88
2022/04/28 07:50:38;;;;;;;;;;;12.50;97.70;;;;;;7349788;19;108081;-89
2022/04/28 07:53:05;;;;;;;;;;;12.60;97.50;;;;;;7345965;19;112467;-88
2022/04/28 07:55:32;;;;;;;;;;;12.60;97.10;;;;;;7348091;19;107221;-89
2022/04/28 07:58:00;;;;;;;;;;;12.60;97.10;;;;;;7346677;19;107817;-89
2022/04/28 08:00:26;;;;;;;;;;;12.70;97.60;;;;;;7342859;19;111675;-90
2022/04/28 08:02:53;;;;;;;;;;;12.80;96.90;;;;;;7344800;19;107343;-87
2022/04/28 08:05:20;;;;;;;;;;;12.90;96.90;;;;;;7346068;19;108619;-89
2022/04/28 08:07:47;;;;;;;;;;;13.00;96.30;;;;;;7350136;19;108461;-90
2022/04/28 08:10:14;;;;;;;;;;;13.10;95.90;;;;;;7347906;19;107899;-89
2022/04/28 08:12:41;;;;;;;;;;;13.20;96.50;;;;;;7345819;19;108844;-89
2022/04/28 08:15:16;;;;;;;;;;;13.30;96.10;;;;;;7346329;19;107334;-88
2022/04/28 08:17:43;;;;;;;;;;;13.50;96.90;;;;;;7344633;19;107859;-89
2022/04/28 08:20:10;;;;;;;;;;;13.70;96.60;;;;;;7348136;19;109247;-89
2022/04/28 08:22:37;;;;;;;;;;;13.80;96.40;;;;;;7348058;19;107107;-90
2022/04/28 08:25:04;;;;;;;;;;;13.90;95.40;;;;;;7345459;19;110609;-89
2022/04/28 08:27:31;;;;;;;;;;;14.00;95.80;;;;;;7347066;19;108843;-89
2022/04/28 08:29:57;;;;;;;;;;;14.20;95.70;;;;;;7350786;19;107227;-87
2022/04/28 08:32:24;;;;;;;;;;;14.20;94.30;;;;;;7344346;19;108967;-89
2022/04/28 08:34:51;;;;;;;;;;;14.20;94.10;;;;;;7343724;19;107441;-89
2022/04/28 08:37:18;;;;;;;;;;;14.20;94.50;;;;;;7344580;19;106821;-89
2022/04/28 08:39:45;;;;;;;;;;;14.20;94.40;;;;;;7342859;19;108993;-89
2022/04/28 08:42:13;;;;;;;;;;;14.30;94.30;;;;;;7347184;19;106979;-88
2022/04/28 08:44:43;;;;;;;;;;;14.40;94.20;;;;;;7343359;19;108311;-89
2022/04/28 08:47:10;;;;;;;;;;;14.50;93.50;;;;;;7343972;19;108008;-89
2022/04/28 08:49:37;;;;;;;;;;;14.40;93.50;;;;;;7344610;19;107005;-89
2022/04/28 08:52:04;;;;;;;;;;;14.60;93.60;;;;;;7348316;19;108123;-87
2022/04/28 08:54:31;;;;;;;;;;;14.70;93.70;;;;;;7346895;19;107515;-90
2022/04/28 08:57:04;;;;;;;;;;;14.90;92.10;;;;;;7344697;19;107833;-89
2022/04/28 08:59:31;;;;;;;;;;;14.90;92.70;;;;;;7343591;19;109602;-89
2022/04/28 09:01:59;;;;;;;;;;;14.90;92.30;;;;;;7341737;19;107676;-89
2022/04/28 09:04:27;;;;;;;;;;;14.80;92.00;;;;;;7345628;19;109504;-89
2022/04/28 09:06:55;;;;;;;;;;;15.00;92.80;;;;;;7342483;19;108375;-89
2022/04/28 09:09:23;;;;;;;;;;;15.10;93.10;;;;;;7347961;19;107195;-88
2022/04/28 09:11:53;;;;;;;;;;;15.30;93.00;;;;;;7343517;19;108243;-88
2022/04/28 09:14:20;;;;;;;;;;;15.50;92.90;;;;;;7346907;19;108986;-90
2022/04/28 09:16:49;;;;;;;;;;;15.50;91.70;;;;;;7342839;19;107531;-89
2022/04/28 09:19:22;;;;;;;;;;;15.60;92.20;;;;;;7342182;19;110416;-88
2022/04/28 09:21:52;;;;;;;;;;;15.70;91.30;;;;;;7345335;19;107769;-88
2022/04/28 09:24:20;;;;;;;;;;;15.70;91.40;;;;;;7344417;19;110158;-87
2022/04/28 09:26:47;;;;;;;;;;;15.70;91.00;;;;;;7337124;19;107792;-86
2022/04/28 09:29:15;;;;;;;;;;;15.70;90.90;;;;;;7340371;19;107315;-87
2022/04/28 09:31:44;;;;;;;;;;;15.60;90.60;;;;;;7343188;19;111012;-87
2022/04/28 09:34:30;;;;;;;;;;;15.60;90.70;;;;;;7340670;19;108710;-87
2022/04/28 09:36:58;;;;;;;;;;;15.60;90.90;;;;;;7347625;19;107057;-87
2022/04/28 09:42:31;;;;;;;;;;;15.90;90.70;;;;;;7348245;19;107636;-86
2022/04/28 09:45:00;;;;;;;;;;;15.90;90.00;;;;;;7351060;19;108034;-87
2022/04/28 09:47:28;;;;;;;;;;;15.90;90.80;;;;;;7349484;19;109042;-86
2022/04/28 09:49:55;;;;;;;;;;;16.00;90.60;;;;;;7348735;19;107163;-86
2022/04/28 09:52:29;;;;;;;;;;;16.10;91.10;;;;;;7348689;19;108172;-87
2022/04/28 09:55:00;;;;;;;;;;;16.30;90.80;;;;;;7348901;19;109490;-86
2022/04/28 09:57:27;;;;;;;;;;;16.50;90.90;;;;;;7353624;19;107220;-86
2022/04/28 09:59:55;;;;;;;;;;;16.60;90.70;;;;;;7349961;19;109216;-86
2022/04/28 10:02:23;;;;;;;;;;;16.60;89.30;;;;;;7349215;19;107018;-86
2022/04/28 10:04:51;;;;;;;;;;;16.70;89.60;;;;;;7349050;19;107983;-86
2022/04/28 10:07:18;;;;;;;;;;;16.80;89.60;;;;;;7347765;19;109279;-88
2022/04/28 10:09:47;;;;;;;;;;;16.90;90.20;;;;;;7348509;19;107903;-88
2022/04/28 10:12:15;;;;;;;;;;;16.90;87.70;;;;;;7349317;19;107663;-88
2022/04/28 10:14:42;;;;;;;;;;;16.80;89.00;;;;;;7346204;19;107997;-88
2022/04/28 10:17:15;;;;;;;;;;;16.80;90.50;;;;;;7346874;19;107743;-87
2022/04/28 10:19:45;;;;;;;;;;;17.00;90.20;;;;;;7351810;19;111334;-88
2022/04/28 10:22:13;;;;;;;;;;;17.20;90.40;;;;;;7345312;19;107112;-88
2022/04/28 10:33:18;;;;;;;;;;;17.50;88.20;;;;;;7346787;19;108389;-87
2022/04/28 10:35:57;;;;;;;;;;;17.50;88.60;;;;;;7344765;19;109503;-88
2022/04/28 10:38:30;;;;;;;;;;;17.60;86.40;;;;;;7343197;19;107179;-87
2022/04/28 10:40:59;;;;;;;;;;;17.40;85.30;;;;;;7347788;19;108190;-87
2022/04/28 10:43:27;;;;;;;;;;;17.30;84.80;;;;;;7351073;19;109211;-89
2022/04/28 10:45:55;;;;;;;;;;;17.30;85.00;;;;;;7345899;19;108149;-88
2022/04/28 10:48:33;;;;;;;;;;;17.30;87.00;;;;;;7343825;19;109480;-87
2022/04/28 10:51:10;;;;;;;;;;;17.50;87.50;;;;;;7347420;19;107515;-88
2022/04/28 10:53:55;;;;;;;;;;;17.50;87.50;;;;;;7346831;19;107815;-88
2022/04/28 10:56:23;;;;;;;;;;;17.60;84.70;;;;;;7343857;19;110278;-88
2022/04/28 10:58:50;;;;;;;;;;;17.60;86.90;;;;;;7344311;19;107371;-87
2022/04/28 11:01:24;;;;;;;;;;;17.80;86.60;;;;;;7347438;19;107566;-88
2022/04/28 11:03:52;;;;;;;;;;;18.00;87.50;;;;;;7348097;19;108992;-89
2022/04/28 11:06:21;;;;;;;;;;;18.20;87.10;;;;;;7353202;19;107197;-88
2022/04/28 11:08:49;;;;;;;;;;;18.30;87.40;;;;;;7347550;19;108525;-88
2022/04/28 11:11:16;;;;;;;;;;;18.50;85.20;;;;;;7349217;19;108080;-88
2022/04/28 11:13:46;;;;;;;;;;;18.50;85.20;;;;;;7346065;19;106884;-89
2022/04/28 11:16:13;;;;;;;;;;;18.70;84.60;;;;;;7347722;19;109708;-88
2022/04/28 11:18:43;;;;;;;;;;;18.70;84.00;;;;;;7346418;19;107306;-88
2022/04/28 11:21:10;;;;;;;;;;;18.70;85.30;;;;;;7346266;19;108855;-89
2022/04/28 11:23:42;;;;;;;;;;;18.80;85.40;;;;;;7347641;19;107754;-87
2022/04/28 11:26:09;;;;;;;;;;;18.90;83.00;;;;;;7345124;19;107364;-89
2022/04/28 11:28:40;;;;;;;;;;;18.90;81.80;;;;;;7352580;19;108079;-88
2022/04/28 11:31:11;;;;;;;;;;;18.80;82.00;;;;;;7347928;19;107118;-88
2022/04/28 11:33:41;;;;;;;;;;;18.70;81.50;;;;;;7346436;19;107878;-88
2022/04/28 11:36:25;;;;;;;;;;;18.80;81.50;;;;;;7345123;19;109504;-88
2022/04/28 11:39:01;;;;;;;;;;;18.80;82.50;;;;;;7342797;19;107374;-89
2022/04/28 11:41:33;;;;;;;;;;;18.80;83.00;;;;;;7345847;19;107969;-88
2022/04/28 11:44:00;;;;;;;;;;;18.90;80.90;;;;;;7346047;19;110124;-87
2022/04/28 11:46:27;;;;;;;;;;;19.10;80.30;;;;;;7344944;19;108963;-88
2022/04/28 11:48:55;;;;;;;;;;;19.20;79.90;;;;;;7350138;19;110860;-88
2022/04/28 11:51:27;;;;;;;;;;;19.30;78.70;;;;;;7346979;19;107442;-88
2022/04/28 11:53:54;;;;;;;;;;;19.40;78.80;;;;;;7346830;19;110003;-89
2022/04/28 11:56:24;;;;;;;;;;;19.40;78.00;;;;;;7346057;19;109024;-89
2022/04/28 11:58:51;;;;;;;;;;;19.40;76.90;;;;;;7343486;19;107147;-88
2022/04/28 12:01:20;;;;;;;;;;;19.50;74.80;;;;;;7346017;19;110861;-90
2022/04/28 12:03:48;;;;;;;;;;;19.60;78.30;;;;;;7344840;19;108377;-89
2022/04/28 12:06:17;;;;;;;;;;;19.80;75.90;;;;;;7347057;19;107150;-88
2022/04/28 12:08:48;;;;;;;;;;;20.00;77.40;;;;;;7344653;19;107398;-88
2022/04/28 12:19:45;;;;;;;;;;;20.40;76.40;;;;;;7352713;19;107002;-96
2022/04/28 12:22:14;;;;;;;;;;;20.60;73.20;;;;;;7353512;19;107530;-94
2022/04/28 12:24:43;;;;;;;;;;;20.70;77.60;;;;;;7352894;19;107487;-94
2022/04/28 12:27:12;;;;;;;;;;;21.10;75.10;;;;;;7353594;19;108466;-95
2022/04/28 12:32:40;;;;;;;;;;;21.30;74.50;;;;;;7344707;19;106971;-92
2022/04/28 12:35:08;;;;;;;;;;;21.40;74.50;;;;;;7356224;19;107736;-93
2022/04/28 12:37:38;;;;;;;;;;;21.40;70.90;;;;;;7348777;19;108645;-93
2022/04/28 12:40:06;;;;;;;;;;;21.50;74.70;;;;;;7352337;19;107243;-92
2022/04/28 12:42:44;;;;;;;;;;;21.50;68.90;;;;;;7350234;19;107500;-94
2022/04/28 12:45:11;;;;;;;;;;;21.20;67.80;;;;;;7351212;19;109156;-94
2022/04/28 12:47:40;;;;;;;;;;;21.20;67.90;;;;;;7349591;19;107039;-94
2022/04/28 12:50:23;;;;;;;;;;;21.20;68.80;;;;;;7349029;19;110158;-94
2022/04/28 12:52:50;;;;;;;;;;;21.20;68.00;;;;;;7350254;19;107977;-93
2022/04/28 12:55:19;;;;;;;;;;;21.20;69.70;;;;;;7349854;19;107444;-94
2022/04/28 12:57:49;;;;;;;;;;;21.50;69.10;;;;;;7353196;19;106980;-93
2022/04/28 13:00:18;;;;;;;;;;;21.70;66.40;;;;;;7351137;19;107074;-94
2022/04/28 13:02:47;;;;;;;;;;;21.60;66.30;;;;;;7349260;19;107453;-95
2022/04/28 13:05:15;;;;;;;;;;;21.80;68.50;;;;;;7348879;19;107916;-94
2022/04/28 13:08:00;;;;;;;;;;;22.00;68.20;;;;;;7348633;19;106921;-93
2022/04/28 13:10:27;;;;;;;;;;;22.40;67.40;;;;;;7346406;19;107590;-94
2022/04/28 13:12:54;;;;;;;;;;;22.60;65.90;;;;;;7348592;19;109052;-94
2022/04/28 13:15:21;;;;;;;;;;;22.70;65.80;;;;;;7350589;19;106920;-94
2022/04/28 13:17:48;;;;;;;;;;;22.80;64.30;;;;;;7356457;19;106957;-94
2022/04/28 13:20:15;;;;;;;;;;;22.90;62.60;;;;;;7359433;19;109470;-93
2022/04/28 13:22:42;;;;;;;;;;;22.80;60.60;;;;;;7355844;19;108070;-88
2022/04/28 13:25:10;;;;;;;;;;;22.90;63.00;;;;;;7357204;19;109110;-93
2022/04/28 13:27:37;;;;;;;;;;;23.00;59.90;;;;;;7355518;19;107259;-93
2022/04/28 13:30:04;;;;;;;;;;;23.00;62.00;;;;;;7356104;19;107694;-95
2022/04/28 13:32:31;;;;;;;;;;;23.20;62.70;;;;;;7356323;19;108048;-95
2022/04/28 13:34:58;;;;;;;;;;;23.00;59.30;;;;;;7356166;19;107065;-94
2022/04/28 13:37:26;;;;;;;;;;;22.40;59.80;;;;;;7355838;19;107119;-91
2022/04/28 13:39:53;;;;;;;;;;;22.10;61.30;;;;;;7354508;19;111320;-94
2022/04/28 13:42:20;;;;;;;;;;;22.00;61.20;;;;;;7362351;19;107700;-94
2022/04/28 13:44:47;;;;;;;;;;;22.30;64.60;;;;;;7353897;19;108241;-93
2022/04/28 13:47:14;;;;;;;;;;;22.50;61.10;;;;;;7356603;19;106961;-94
2022/04/28 13:49:41;;;;;;;;;;;22.60;59.70;;;;;;7356370;19;107120;-91
2022/04/28 13:52:09;;;;;;;;;;;22.20;60.20;;;;;;7356602;19;108878;-92
2022/04/28 13:54:36;;;;;;;;;;;22.20;62.80;;;;;;7356931;19;107447;-92
2022/04/28 13:57:04;;;;;;;;;;;22.30;63.50;;;;;;7357041;19;106638;-91
2022/04/28 13:59:31;;;;;;;;;;;22.60;62.80;;;;;;7352598;19;109450;-93
2022/04/28 14:01:58;;;;;;;;;;;23.00;64.20;;;;;;7360913;19;106913;-92
2022/04/28 14:04:25;;;;;;;;;;;23.10;60.30;;;;;;7355378;19;109170;-92
2022/04/28 14:06:53;;;;;;;;;;;23.00;62.00;;;;;;7356500;19;107136;-92
2022/04/28 14:09:20;;;;;;;;;;;22.70;59.70;;;;;;7357107;19;107814;-92
2022/04/28 14:11:47;;;;;;;;;;;22.70;63.00;;;;;;7357392;19;108317;-93
2022/04/28 14:14:14;;;;;;;;;;;22.80;61.40;;;;;;7355180;19;107284;-93
2022/04/28 14:16:41;;;;;;;;;;;22.70;59.50;;;;;;7355875;19;107903;-92
2022/04/28 14:19:08;;;;;;;;;;;22.30;58.90;;;;;;7353618;19;108346;-93
2022/04/28 14:21:36;;;;;;;;;;;22.50;61.10;;;;;;7356464;19;106985;-96
2022/04/28 14:24:03;;;;;;;;;;;22.30;59.60;;;;;;7357386;19;107654;-93
2022/04/28 14:26:31;;;;;;;;;;;22.00;59.40;;;;;;7354518;19;107092;-93
2022/04/28 14:28:58;;;;;;;;;;;22.20;61.10;;;;;;7354479;19;108282;-92
2022/04/28 14:31:24;;;;;;;;;;;22.50;59.70;;;;;;7354999;19;107935;-93
2022/04/28 14:34:12;;;;;;;;;;;22.90;60.40;;;;;;7352245;19;107285;-94
2022/04/28 14:36:38;;;;;;;;;;;23.10;60.50;;;;;;7353972;19;108237;-95
2022/04/28 14:39:06;;;;;;;;;;;23.20;59.10;;;;;;7352475;19;108943;-93
2022/04/28 14:41:33;;;;;;;;;;;23.00;58.20;;;;;;7355234;19;107211;-94
2022/04/28 14:44:01;;;;;;;;;;;22.80;59.40;;;;;;7354026;19;110215;-95
2022/04/28 14:46:28;;;;;;;;;;;22.70;58.80;;;;;;7361786;19;108198;-95
2022/04/28 14:54:27;;;;;;;;;;;22.30;59.10;;;;;;7357313;19;106982;-94
2022/04/28 14:56:54;;;;;;;;;;;22.00;59.30;;;;;;7355436;19;107052;-95
2022/04/28 14:59:21;;;;;;;;;;;22.20;61.00;;;;;;7354534;19;107545;-95
2022/04/28 15:01:52;;;;;;;;;;;22.40;59.10;;;;;;7356242;19;107359;-96
2022/04/28 15:04:19;;;;;;;;;;;22.60;59.40;;;;;;7357329;19;107567;-95
2022/04/28 15:06:46;;;;;;;;;;;22.60;58.80;;;;;;7356306;19;108013;-95
2022/04/28 15:09:13;;;;;;;;;;;22.50;59.10;;;;;;7363061;19;107360;-96
2022/04/28 15:11:40;;;;;;;;;;;22.10;60.00;;;;;;7355273;19;112189;-95
2022/04/28 15:14:08;;;;;;;;;;;22.30;60.80;;;;;;7355089;19;106876;-93
2022/04/28 15:16:35;;;;;;;;;;;22.20;59.30;;;;;;7352640;19;108243;-94
2022/04/28 15:19:02;;;;;;;;;;;22.20;59.50;;;;;;7354882;19;108915;-95